Time;durP1;ratioP1;P1;durP2;ratioP2;P2;SDS_P1;SDS_P2;PMS_P1;PMS_P2;Temp;Humidity;BMP_temperature;BMP_pressure;BME280_temperature;BME280_humidity;BME280_pressure;Samples;Min_cycle;Max_cycle;Signal;HPM_P1;HPM_P2
2022/12/09 00:01:55;;;;;;;15.40;8.20;;;2.20;99.90;;;;;;5116794;27;20051;-67
2022/12/09 00:04:21;;;;;;;16.38;8.43;;;1.80;99.90;;;;;;5116220;28;20066;-67
2022/12/09 00:06:46;;;;;;;14.65;8.35;;;1.60;99.90;;;;;;5134866;28;20490;-67
2022/12/09 00:09:16;;;;;;;15.40;8.38;;;1.50;99.90;;;;;;5116271;28;20470;-67
2022/12/09 00:11:43;;;;;;;15.15;7.53;;;2.20;99.90;;;;;;5134809;28;20046;-67
2022/12/09 00:14:12;;;;;;;16.35;9.05;;;2.10;99.90;;;;;;5116281;28;20099;-67
2022/12/09 00:16:38;;;;;;;15.60;8.48;;;2.50;99.90;;;;;;5116370;28;20105;-67
2022/12/09 00:19:06;;;;;;;16.75;8.32;;;2.40;99.90;;;;;;5116280;28;20047;-67
2022/12/09 00:21:33;;;;;;;18.48;8.60;;;1.50;99.90;;;;;;5134421;28;20053;-67
2022/12/09 00:24:04;;;;;;;14.60;7.88;;;2.00;99.90;;;;;;5134454;28;20058;-67
2022/12/09 00:26:31;;;;;;;16.20;8.27;;;1.80;99.90;;;;;;5135233;28;20391;-67
2022/12/09 00:28:57;;;;;;;16.80;7.57;;;1.80;99.90;;;;;;5134382;28;20046;-67
2022/12/09 00:31:30;;;;;;;12.35;6.60;;;2.00;99.90;;;;;;5134373;28;20078;-67
2022/12/09 00:33:59;;;;;;;14.65;8.02;;;2.10;99.90;;;;;;5117167;28;20054;-67
2022/12/09 00:36:25;;;;;;;14.13;6.80;;;1.40;99.90;;;;;;5134342;28;20107;-67
2022/12/09 00:38:52;;;;;;;12.52;6.32;;;1.50;99.90;;;;;;5134314;28;20054;-67
2022/12/09 00:41:18;;;;;;;14.48;7.22;;;2.90;99.90;;;;;;5134281;28;20126;-67
2022/12/09 00:43:44;;;;;;;13.07;6.18;;;1.70;99.90;;;;;;5116875;28;20130;-67
2022/12/09 00:46:11;;;;;;;11.98;5.55;;;1.80;99.90;;;;;;5134186;28;20062;-67
2022/12/09 00:48:37;;;;;;;12.70;5.72;;;1.40;99.90;;;;;;5134253;28;20422;-67
2022/12/09 00:51:04;;;;;;;11.65;6.03;;;1.50;99.90;;;;;;5134219;28;20051;-67
2022/12/09 00:53:30;;;;;;;12.35;6.13;;;1.30;99.90;;;;;;5134140;28;20073;-67
2022/12/09 00:55:56;;;;;;;8.77;5.07;;;1.40;99.90;;;;;;5116365;28;20122;-67
2022/12/09 00:58:22;;;;;;;10.07;4.55;;;1.10;99.90;;;;;;5134226;28;20140;-67
2022/12/09 01:00:48;;;;;;;10.63;4.68;;;1.40;99.90;;;;;;5135993;27;20074;-67
2022/12/09 01:03:15;;;;;;;7.72;3.90;;;1.30;99.90;;;;;;5119849;27;20474;-67
2022/12/09 01:05:41;;;;;;;8.45;4.13;;;2.20;99.90;;;;;;5137812;27;20035;-67
2022/12/09 01:08:08;;;;;;;9.77;4.50;;;1.70;99.90;;;;;;5137823;27;20134;-67
2022/12/09 01:10:35;;;;;;;8.27;3.88;;;2.20;99.90;;;;;;5137736;27;20043;-67
2022/12/09 01:13:01;;;;;;;7.53;3.88;;;2.40;99.90;;;;;;5137648;27;20540;-67
2022/12/09 01:15:27;;;;;;;6.88;4.03;;;2.10;99.90;;;;;;5137721;27;20484;-67
2022/12/09 01:17:52;;;;;;;9.48;5.25;;;1.50;99.90;;;;;;5137621;27;20055;-67
2022/12/09 01:20:18;;;;;;;8.55;4.50;;;2.30;99.90;;;;;;5119489;27;20134;-67
2022/12/09 01:22:45;;;;;;;10.50;4.28;;;1.70;99.90;;;;;;5137520;27;20467;-67
2022/12/09 01:25:11;;;;;;;8.13;3.92;;;1.80;99.90;;;;;;5119247;27;20039;-67
2022/12/09 01:27:37;;;;;;;7.20;3.67;;;1.40;99.90;;;;;;5137486;27;20047;-67
2022/12/09 01:30:04;;;;;;;8.43;4.15;;;1.60;99.90;;;;;;5119770;27;20459;-67
2022/12/09 01:32:30;;;;;;;7.93;3.75;;;1.50;99.90;;;;;;5137329;27;20094;-68
2022/12/09 01:34:55;;;;;;;8.52;3.83;;;1.80;99.90;;;;;;5101053;27;20086;-67
2022/12/09 01:37:21;;;;;;;7.97;4.07;;;1.40;99.90;;;;;;5119205;27;20383;-67
2022/12/09 01:39:47;;;;;;;9.05;3.80;;;2.20;99.90;;;;;;5136867;27;20038;-68
2022/12/09 01:42:21;;;;;;;9.07;4.10;;;1.80;99.90;;;;;;5138254;27;20068;-67
2022/12/09 01:45:21;;;;;;;7.65;4.13;;;2.00;99.90;;;;;;5136947;27;20122;-67
2022/12/09 01:47:50;;;;;;;9.65;4.82;;;1.70;99.90;;;;;;5137107;27;20087;-67
2022/12/09 01:50:17;;;;;;;9.25;4.88;;;1.50;99.90;;;;;;5136997;27;20176;-67
2022/12/09 01:52:45;;;;;;;7.97;5.10;;;2.30;99.90;;;;;;5137020;27;20043;-67
2022/12/09 01:55:12;;;;;;;10.07;4.90;;;1.40;99.90;;;;;;5119381;27;20356;-67
2022/12/09 01:57:38;;;;;;;10.60;5.03;;;1.80;99.90;;;;;;5137148;27;20066;-67
2022/12/09 02:00:05;;;;;;;8.13;4.35;;;1.70;99.90;;;;;;5136875;27;20143;-67
2022/12/09 02:02:35;;;;;;;9.02;3.75;;;1.80;99.90;;;;;;5101389;27;20050;-67
2022/12/09 02:05:02;;;;;;;8.40;4.20;;;1.80;99.90;;;;;;5137219;27;20386;-67
2022/12/09 02:07:28;;;;;;;8.65;4.32;;;1.80;99.90;;;;;;5136342;27;20541;-67
2022/12/09 02:09:53;;;;;;;9.82;4.40;;;1.70;99.90;;;;;;5136647;27;20134;-67
2022/12/09 02:12:28;;;;;;;9.98;5.28;;;1.50;99.90;;;;;;5136423;27;20129;-67
2022/12/09 02:15:08;;;;;;;10.82;4.40;;;1.70;99.90;;;;;;5136492;27;20092;-67
2022/12/09 02:17:33;;;;;;;11.70;5.78;;;1.70;99.90;;;;;;5118303;27;20043;-67
2022/12/09 02:20:21;;;;;;;11.75;5.30;;;1.70;99.90;;;;;;5136396;27;20539;-67
2022/12/09 02:22:54;;;;;;;10.70;4.90;;;1.50;99.90;;;;;;5136466;27;20047;-67
2022/12/09 02:25:32;;;;;;;11.25;5.15;;;2.10;99.90;;;;;;5118299;27;20090;-67
2022/12/09 02:28:27;;;;;;;9.63;5.35;;;1.50;99.90;;;;;;5136269;27;20126;-67
2022/12/09 02:31:23;;;;;;;13.77;5.40;;;1.70;99.90;;;;;;5100802;27;20051;-67
2022/12/09 02:34:04;;;;;;;9.77;4.65;;;1.60;99.90;;;;;;5101309;27;20051;-67
2022/12/09 02:36:38;;;;;;;9.90;5.50;;;1.80;99.90;;;;;;5136162;27;20482;-67
2022/12/09 02:39:05;;;;;;;11.75;5.18;;;1.60;99.90;;;;;;5136717;27;20047;-67
2022/12/09 02:41:33;;;;;;;10.30;5.50;;;1.70;99.90;;;;;;5117578;27;20065;-67
2022/12/09 02:44:14;;;;;;;8.55;4.97;;;1.60;99.90;;;;;;5117614;27;20047;-67
2022/12/09 02:46:42;;;;;;;11.60;5.07;;;1.60;99.90;;;;;;5135874;27;20080;-67
2022/12/09 02:49:08;;;;;;;11.73;5.63;;;1.50;99.90;;;;;;5135864;27;20474;-67
2022/12/09 02:51:40;;;;;;;12.52;6.10;;;1.70;99.90;;;;;;5135856;27;20039;-67
2022/12/09 02:54:12;;;;;;;13.13;6.60;;;1.80;99.90;;;;;;5136439;27;20144;-67
2022/12/09 02:56:42;;;;;;;12.38;6.47;;;2.00;99.90;;;;;;5136321;27;20050;-67
2022/12/09 02:59:08;;;;;;;11.45;5.80;;;1.90;99.90;;;;;;5135616;27;20051;-67
2022/12/09 03:01:55;;;;;;;10.60;5.85;;;1.70;99.90;;;;;;5136129;27;20082;-67
2022/12/09 03:04:24;;;;;;;12.07;6.30;;;1.50;99.90;;;;;;5136384;27;20386;-67
2022/12/09 03:06:52;;;;;;;13.85;6.35;;;1.50;99.90;;;;;;5117726;27;20079;-67
2022/12/09 03:09:29;;;;;;;8.95;5.10;;;1.70;99.90;;;;;;5135472;27;20046;-68
2022/12/09 03:12:00;;;;;;;13.35;6.43;;;1.60;99.90;;;;;;5135129;27;20064;-67
2022/12/09 03:14:36;;;;;;;10.88;5.80;;;1.40;99.90;;;;;;5117505;27;20055;-67
2022/12/09 03:17:12;;;;;;;9.88;5.63;;;1.60;99.90;;;;;;5117172;27;20083;-67
2022/12/09 03:19:46;;;;;;;12.73;6.00;;;1.60;99.90;;;;;;5101039;27;20051;-67
2022/12/09 03:22:16;;;;;;;12.32;7.47;;;2.50;99.90;;;;;;5117264;27;20406;-67
2022/12/09 03:25:11;;;;;;;11.30;5.57;;;1.30;99.90;;;;;;5151950;27;20082;-67
2022/12/09 03:27:54;;;;;;;10.35;6.38;;;1.50;99.90;;;;;;5105716;27;20062;-67
2022/12/09 03:30:20;;;;;;;;;;;1.40;99.90;;;;;;5101277;27;20138;-67
2022/12/09 03:32:46;;;;;;;12.18;6.38;;;1.70;99.90;;;;;;5135030;27;20413;-67
2022/12/09 03:35:17;;;;;;;11.73;6.15;;;1.60;99.90;;;;;;5134713;27;20123;-68
2022/12/09 03:37:44;;;;;;;12.60;6.40;;;2.30;99.90;;;;;;5116755;27;20050;-67
2022/12/09 03:40:14;;;;;;;11.02;6.07;;;2.00;99.90;;;;;;5134972;27;20376;-67
2022/12/09 03:42:51;;;;;;;15.95;6.55;;;1.20;99.90;;;;;;5135727;27;20102;-68
2022/12/09 03:45:19;;;;;;;12.98;6.88;;;1.70;99.90;;;;;;5135361;27;20047;-67
2022/12/09 03:47:45;;;;;;;16.85;6.90;;;1.30;99.90;;;;;;5116788;27;20122;-67
2022/12/09 03:50:12;;;;;;;12.00;6.65;;;2.90;99.90;;;;;;5099650;27;20126;-67
2022/12/09 03:52:52;;;;;;;11.20;6.07;;;1.10;99.90;;;;;;5116488;28;20043;-67
2022/12/09 03:55:27;;;;;;;12.00;5.82;;;1.20;99.90;;;;;;5135605;27;20079;-67
2022/12/09 03:57:56;;;;;;;13.40;6.82;;;1.20;99.90;;;;;;5134815;27;20062;-67
2022/12/09 04:00:23;;;;;;;12.63;6.82;;;2.50;99.90;;;;;;5135468;27;20082;-67
2022/12/09 04:02:49;;;;;;;15.23;6.63;;;1.00;99.90;;;;;;5135002;27;20103;-67
2022/12/09 04:05:14;;;;;;;10.32;6.18;;;0.90;99.90;;;;;;5134529;27;20047;-67
2022/12/09 04:07:41;;;;;;;11.40;5.97;;;1.10;99.90;;;;;;5116475;28;20051;-67
2022/12/09 04:10:07;;;;;;;14.00;6.25;;;1.00;99.90;;;;;;5116499;28;20391;-67
2022/12/09 04:12:33;;;;;;;11.80;5.82;;;1.10;99.90;;;;;;5134570;28;20043;-67
2022/12/09 04:14:58;;;;;;;10.45;5.70;;;1.10;99.90;;;;;;5134516;28;20116;-67
2022/12/09 04:17:24;;;;;;;10.68;5.97;;;1.00;99.90;;;;;;5116329;28;20054;-67
2022/12/09 04:19:49;;;;;;;11.73;6.20;;;1.50;99.90;;;;;;5099521;28;20047;-67
2022/12/09 04:22:15;;;;;;;10.07;5.80;;;1.00;99.90;;;;;;5116201;28;20043;-67
2022/12/09 04:24:41;;;;;;;11.50;6.35;;;0.90;99.90;;;;;;5134394;28;20549;-67
2022/12/09 04:27:08;;;;;;;12.27;5.93;;;1.00;99.90;;;;;;5134999;28;20096;-67
2022/12/09 04:29:34;;;;;;;13.48;6.28;;;0.80;99.90;;;;;;5116133;28;20050;-67
2022/12/09 04:32:00;;;;;;;11.75;5.82;;;0.90;99.90;;;;;;5134928;28;20055;-67
2022/12/09 04:34:25;;;;;;;11.77;6.18;;;1.90;99.90;;;;;;5134332;28;20115;-67
2022/12/09 04:36:51;;;;;;;11.90;5.95;;;1.60;99.90;;;;;;5137930;27;20082;-67
2022/12/09 04:39:18;;;;;;;11.38;6.35;;;1.10;99.90;;;;;;5138951;27;20047;-67
2022/12/09 04:41:44;;;;;;;10.38;5.47;;;0.80;99.90;;;;;;5138067;27;20043;-67
2022/12/09 04:44:09;;;;;;;12.43;5.82;;;0.90;99.90;;;;;;5138291;27;20131;-67
2022/12/09 04:46:35;;;;;;;11.25;5.50;;;1.10;99.90;;;;;;5119581;27;20049;-67
2022/12/09 04:49:01;;;;;;;11.55;6.55;;;0.90;99.90;;;;;;5138223;27;20050;-67
2022/12/09 04:51:26;;;;;;;12.02;5.88;;;1.70;99.90;;;;;;5102729;27;20035;-67
2022/12/09 04:53:52;;;;;;;11.75;6.05;;;0.70;99.90;;;;;;5138154;27;20091;-67
2022/12/09 04:56:20;;;;;;;12.48;6.72;;;0.90;99.90;;;;;;5119966;27;20043;-67
2022/12/09 04:58:47;;;;;;;10.10;5.57;;;1.20;99.90;;;;;;5138147;27;20059;-67
2022/12/09 05:01:15;;;;;;;11.35;6.60;;;1.00;99.90;;;;;;5137997;27;20062;-67
2022/12/09 05:03:42;;;;;;;14.60;6.05;;;1.60;99.90;;;;;;5120247;27;20119;-67
2022/12/09 05:06:11;;;;;;;10.57;5.90;;;1.10;99.90;;;;;;5137854;27;20045;-66
2022/12/09 05:08:38;;;;;;;12.82;6.10;;;0.90;99.90;;;;;;5119763;27;20047;-66
2022/12/09 05:11:04;;;;;;;12.43;5.93;;;1.50;99.90;;;;;;5138131;27;20093;-67
2022/12/09 05:13:30;;;;;;;10.45;6.18;;;1.50;99.90;;;;;;5137693;27;20288;-67
2022/12/09 05:16:11;;;;;;;11.73;6.43;;;0.90;99.90;;;;;;5137706;27;20079;-66
2022/12/09 05:18:37;;;;;;;12.90;6.60;;;0.90;99.90;;;;;;5137647;27;20035;-66
2022/12/09 05:21:07;;;;;;;12.25;6.43;;;0.90;99.90;;;;;;5137661;27;20054;-67
2022/12/09 05:23:33;;;;;;;10.68;5.82;;;0.80;99.90;;;;;;5137597;27;20051;-66
2022/12/09 05:26:04;;;;;;;12.95;6.40;;;0.70;99.90;;;;;;5137954;27;20115;-66
2022/12/09 05:28:30;;;;;;;11.70;6.10;;;0.80;99.90;;;;;;5120127;27;20102;-66
2022/12/09 05:31:03;;;;;;;11.05;6.30;;;0.60;99.90;;;;;;5137475;27;20061;-66
2022/12/09 05:33:29;;;;;;;11.32;6.10;;;0.60;99.90;;;;;;5137768;27;20390;-66
2022/12/09 05:35:56;;;;;;;11.60;6.43;;;0.70;99.90;;;;;;5137000;27;20122;-67
2022/12/09 05:38:22;;;;;;;11.48;6.30;;;1.40;99.90;;;;;;5137290;27;20074;-67
2022/12/09 05:40:48;;;;;;;12.50;6.75;;;0.80;99.90;;;;;;5119420;27;20043;-67
2022/12/09 05:43:14;;;;;;;14.40;6.90;;;0.90;99.90;;;;;;5137156;27;20091;-67
2022/12/09 05:45:40;;;;;;;14.02;6.70;;;1.30;99.90;;;;;;5118861;27;20062;-67
2022/12/09 05:48:06;;;;;;;10.43;6.15;;;0.70;99.90;;;;;;5118218;27;20054;-67
2022/12/09 05:50:31;;;;;;;11.88;6.68;;;0.70;99.90;;;;;;5137581;27;20054;-67
2022/12/09 05:52:57;;;;;;;12.00;6.35;;;1.40;99.90;;;;;;5136660;27;20046;-67
2022/12/09 05:55:23;;;;;;;11.98;6.28;;;1.30;99.90;;;;;;5118681;27;20047;-67
2022/12/09 05:57:49;;;;;;;10.48;5.97;;;0.60;99.90;;;;;;5136910;27;20039;-67
2022/12/09 06:00:15;;;;;;;13.73;7.65;;;0.60;99.90;;;;;;5118229;27;20126;-67
2022/12/09 06:02:41;;;;;;;10.60;5.95;;;0.20;99.90;;;;;;5136830;27;20070;-67
2022/12/09 06:05:08;;;;;;;14.43;6.88;;;0.60;99.90;;;;;;5136706;27;20035;-67
2022/12/09 06:07:34;;;;;;;11.40;6.13;;;0.30;99.90;;;;;;5136759;27;20047;-67
2022/12/09 06:10:00;;;;;;;12.15;6.65;;;0.30;99.90;;;;;;5136747;27;20543;-67
2022/12/09 06:12:26;;;;;;;13.68;6.95;;;0.30;99.90;;;;;;5136662;27;20058;-67
2022/12/09 06:14:51;;;;;;;12.38;6.15;;;1.30;99.90;;;;;;5101448;27;20047;-67
2022/12/09 06:17:17;;;;;;;13.18;6.47;;;1.00;99.90;;;;;;5119197;27;20053;-68
2022/12/09 06:19:43;;;;;;;13.07;6.07;;;0.10;99.90;;;;;;5118404;27;20128;-67
2022/12/09 06:22:09;;;;;;;11.25;5.88;;;0.30;99.90;;;;;;5118203;27;20550;-67
2022/12/09 06:24:34;;;;;;;11.52;6.43;;;0.30;99.90;;;;;;5136315;27;20505;-67
2022/12/09 06:27:01;;;;;;;14.45;7.28;;;0.10;99.90;;;;;;5136315;27;20112;-67
2022/12/09 06:29:26;;;;;;;15.25;7.30;;;0.30;99.90;;;;;;5117908;27;20372;-67
2022/12/09 06:31:52;;;;;;;14.77;7.90;;;0.10;99.90;;;;;;5136250;27;20099;-67
2022/12/09 06:34:18;;;;;;;14.85;7.82;;;0.40;99.90;;;;;;5117747;27;20479;-67
2022/12/09 06:36:43;;;;;;;12.60;7.38;;;0.20;99.90;;;;;;5136136;27;20096;-67
2022/12/09 06:39:09;;;;;;;13.60;8.50;;;2.10;99.90;;;;;;5136070;27;20501;-67
2022/12/09 06:41:35;;;;;;;15.05;7.43;;;0.20;99.90;;;;;;5136577;27;20356;-67
2022/12/09 06:44:00;;;;;;;14.52;7.68;;;0.10;99.90;;;;;;5136414;27;20047;-67
2022/12/09 06:46:27;;;;;;;16.08;7.50;;;0.80;99.90;;;;;;5135849;27;20047;-67
2022/12/09 06:48:54;;;;;;;15.27;8.25;;;0.40;99.90;;;;;;5135851;27;20047;-67
2022/12/09 06:51:21;;;;;;;13.98;8.13;;;0.40;99.90;;;;;;5136180;27;20043;-67
2022/12/09 06:53:47;;;;;;;13.52;7.70;;;0.20;99.90;;;;;;5118112;27;20047;-67
2022/12/09 06:56:14;;;;;;;15.68;7.55;;;0.40;99.90;;;;;;5135755;27;20428;-67
2022/12/09 06:58:41;;;;;;;16.23;8.45;;;1.00;99.90;;;;;;5117173;27;20055;-67
2022/12/09 07:01:27;;;;;;;14.55;7.55;;;1.10;99.90;;;;;;5118422;27;20051;-67
2022/12/09 07:03:54;;;;;;;17.88;8.35;;;1.20;99.90;;;;;;5134891;27;20064;-67
2022/12/09 07:06:33;;;;;;;18.77;8.73;;;0.70;99.90;;;;;;5136064;27;20049;-67
2022/12/09 07:09:07;;;;;;;16.73;8.48;;;0.50;99.90;;;;;;5117300;27;20039;-67
2022/12/09 07:11:33;;;;;;;14.65;7.75;;;0.60;99.90;;;;;;5117065;27;20049;-68
2022/12/09 07:13:59;;;;;;;17.63;8.07;;;0.20;99.90;;;;;;5135009;27;20495;-67
2022/12/09 07:16:25;;;;;;;15.90;8.02;;;0.70;99.90;;;;;;5135401;27;20039;-67
2022/12/09 07:18:51;;;;;;;16.15;7.90;;;0.30;99.90;;;;;;5135552;27;20058;-67
2022/12/09 07:21:18;;;;;;;19.60;8.45;;;0.40;99.90;;;;;;5135259;27;20387;-67
2022/12/09 07:23:44;;;;;;;16.17;9.07;;;0.40;99.90;;;;;;5135252;27;20051;-67
2022/12/09 07:26:10;;;;;;;18.48;8.70;;;0.30;99.90;;;;;;5116840;27;20125;-67
2022/12/09 07:28:39;;;;;;;16.02;8.20;;;0.50;99.90;;;;;;5135173;27;20043;-67
2022/12/09 07:31:05;;;;;;;17.27;8.35;;;0.50;99.90;;;;;;5135408;27;20047;-67
2022/12/09 07:33:31;;;;;;;17.00;8.95;;;1.30;99.90;;;;;;5135000;27;20130;-67
2022/12/09 07:35:58;;;;;;;16.73;8.68;;;0.50;99.90;;;;;;5116843;27;20065;-67
2022/12/09 07:38:25;;;;;;;18.05;8.38;;;0.10;99.90;;;;;;5135234;27;20363;-67
2022/12/09 07:40:51;;;;;;;17.75;9.60;;;0.30;99.90;;;;;;5134937;27;20047;-67
2022/12/09 07:43:17;;;;;;;17.73;9.32;;;0.50;99.90;;;;;;5134752;27;20047;-67
2022/12/09 07:45:43;;;;;;;18.48;9.18;;;1.40;99.90;;;;;;5134825;27;20058;-67
2022/12/09 07:48:10;;;;;;;17.35;9.40;;;1.40;99.90;;;;;;5134873;27;20528;-67
2022/12/09 07:50:36;;;;;;;18.80;9.30;;;0.50;99.90;;;;;;5135078;27;20043;-67
2022/12/09 07:53:01;;;;;;;17.48;9.48;;;0.20;99.90;;;;;;5134492;27;20471;-67
2022/12/09 07:55:27;;;;;;;19.10;9.73;;;0.60;99.90;;;;;;5134703;27;20043;-67
2022/12/09 07:57:53;;;;;;;23.10;10.23;;;0.40;99.90;;;;;;5116704;27;20043;-67
2022/12/09 08:00:19;;;;;;;23.98;12.15;;;1.10;99.90;;;;;;5116476;27;20562;-67
2022/12/09 08:02:45;;;;;;;21.27;11.45;;;0.30;99.90;;;;;;5116380;27;20050;-67
2022/12/09 08:05:10;;;;;;;19.38;10.13;;;0.50;99.90;;;;;;5134732;27;20044;-67
2022/12/09 08:07:36;;;;;;;20.58;11.43;;;0.30;99.90;;;;;;5135658;28;20043;-67
2022/12/09 08:10:03;;;;;;;20.25;10.07;;;0.50;99.90;;;;;;5116159;28;20047;-67
2022/12/09 08:12:28;;;;;;;20.55;10.18;;;0.20;99.90;;;;;;5099633;28;20051;-67
2022/12/09 08:14:54;;;;;;;20.02;10.50;;;0.70;99.90;;;;;;5135246;28;20169;-68
2022/12/09 08:17:20;;;;;;;22.45;10.85;;;0.30;99.90;;;;;;5134653;28;20047;-67
2022/12/09 08:19:47;;;;;;;20.45;11.15;;;0.50;99.90;;;;;;5134649;28;20055;-66
2022/12/09 08:22:13;;;;;;;19.55;10.00;;;0.60;99.90;;;;;;5134641;28;20450;-66
2022/12/09 08:24:38;;;;;;;26.48;12.40;;;0.10;99.90;;;;;;5135604;28;20125;-66
2022/12/09 08:27:04;;;;;;;21.33;11.02;;;0.60;99.90;;;;;;5134536;28;20047;-66
2022/12/09 08:29:30;;;;;;;23.60;11.63;;;0.20;99.90;;;;;;5135142;28;20074;-66
2022/12/09 08:31:55;;;;;;;21.60;11.05;;;0.40;99.90;;;;;;5134554;28;20078;-66
2022/12/09 08:34:21;;;;;;;20.48;10.15;;;0.50;99.90;;;;;;5135055;28;20050;-66
2022/12/09 08:36:47;;;;;;;21.75;10.45;;;0.50;99.90;;;;;;5134505;28;20042;-66
2022/12/09 08:39:13;;;;;;;21.88;10.25;;;0.60;99.90;;;;;;5099407;28;20419;-67
2022/12/09 08:41:39;;;;;;;19.17;10.05;;;1.80;99.90;;;;;;5134490;28;20127;-67
2022/12/09 08:44:10;;;;;;;21.00;10.05;;;0.70;99.90;;;;;;5135161;28;20378;-65
2022/12/09 08:46:38;;;;;;;18.92;10.23;;;0.40;99.90;;;;;;5116650;28;20039;-65
2022/12/09 08:49:04;;;;;;;20.27;10.50;;;0.80;99.90;;;;;;5134370;28;20096;-65
2022/12/09 08:51:30;;;;;;;25.52;12.20;;;0.50;99.90;;;;;;5134263;28;20074;-67
2022/12/09 08:53:57;;;;;;;21.25;11.18;;;0.80;99.90;;;;;;5115834;28;20043;-67
2022/12/09 08:56:24;;;;;;;21.65;11.65;;;0.60;99.90;;;;;;5134316;28;20055;-67
2022/12/09 08:58:50;;;;;;;21.50;10.50;;;0.80;99.90;;;;;;5134006;28;20463;-67
2022/12/09 09:01:33;;;;;;;20.55;10.40;;;0.70;99.90;;;;;;5116813;28;20086;-66
2022/12/09 09:04:11;;;;;;;27.95;14.23;;;0.80;99.90;;;;;;5133960;28;20483;-67
2022/12/09 09:06:38;;;;;;;23.98;11.43;;;1.30;99.90;;;;;;5116464;28;20118;-67
2022/12/09 09:09:05;;;;;;;24.98;10.88;;;1.40;99.90;;;;;;5134135;28;20047;-67
2022/12/09 09:11:31;;;;;;;22.30;10.52;;;0.70;99.90;;;;;;5134115;28;20047;-66
2022/12/09 09:13:58;;;;;;;23.75;10.90;;;1.50;99.90;;;;;;5134333;28;20058;-67
2022/12/09 09:16:25;;;;;;;27.13;13.35;;;1.00;99.90;;;;;;5134349;28;20506;-67
2022/12/09 09:18:51;;;;;;;23.23;11.75;;;0.80;99.90;;;;;;5116004;28;20043;-67
2022/12/09 09:21:19;;;;;;;21.92;10.68;;;1.60;99.90;;;;;;5134252;27;20479;-67
2022/12/09 09:23:46;;;;;;;19.08;10.43;;;1.30;99.90;;;;;;5137677;27;20050;-67
2022/12/09 09:26:24;;;;;;;25.13;11.43;;;0.90;99.90;;;;;;5137581;27;20043;-66
2022/12/09 09:28:50;;;;;;;21.58;11.35;;;1.30;99.90;;;;;;5137663;27;20471;-65
2022/12/09 09:31:21;;;;;;;18.90;10.10;;;1.40;99.90;;;;;;5119101;27;20039;-65
2022/12/09 09:33:47;;;;;;;20.98;10.20;;;1.70;99.90;;;;;;5119107;27;20035;-66
2022/12/09 09:36:22;;;;;;;20.55;10.45;;;1.20;99.90;;;;;;5119932;27;20035;-66
2022/12/09 09:38:50;;;;;;;20.13;10.27;;;1.60;99.90;;;;;;5119988;27;20055;-66
2022/12/09 09:41:25;;;;;;;21.63;10.55;;;1.10;99.90;;;;;;5137296;27;20047;-66
2022/12/09 09:43:52;;;;;;;19.75;10.30;;;1.20;99.90;;;;;;5137127;27;20058;-66
2022/12/09 09:46:29;;;;;;;21.30;10.35;;;1.20;99.90;;;;;;5118578;27;20043;-66
2022/12/09 09:48:56;;;;;;;21.02;10.43;;;1.00;99.90;;;;;;5137206;27;20046;-67
2022/12/09 09:51:22;;;;;;;22.85;10.90;;;1.80;99.90;;;;;;5137697;27;20086;-66
2022/12/09 09:53:51;;;;;;;21.95;11.10;;;1.80;99.90;;;;;;5136963;27;20089;-66
2022/12/09 09:56:30;;;;;;;22.30;12.07;;;1.30;99.90;;;;;;5137001;27;20100;-66
2022/12/09 09:59:15;;;;;;;23.85;11.77;;;1.30;99.90;;;;;;5119186;27;20039;-66
2022/12/09 10:02:00;;;;;;;31.13;16.85;;;1.20;99.90;;;;;;5137223;27;20482;-66
2022/12/09 10:04:41;;;;;;;27.30;14.50;;;1.30;99.90;;;;;;5119476;27;20100;-66
2022/12/09 10:07:17;;;;;;;24.45;13.23;;;1.40;99.90;;;;;;5137216;27;20047;-66
2022/12/09 10:09:55;;;;;;;25.38;12.77;;;2.50;99.90;;;;;;5136509;27;20494;-66
2022/12/09 10:12:42;;;;;;;24.23;11.63;;;2.10;99.90;;;;;;5136761;27;20047;-66
2022/12/09 10:15:19;;;;;;;25.48;13.82;;;2.00;99.90;;;;;;5118848;27;20093;-66
2022/12/09 10:17:54;;;;;;;22.70;11.98;;;1.80;99.90;;;;;;5118559;27;20047;-66
2022/12/09 10:20:26;;;;;;;23.65;12.02;;;1.60;99.90;;;;;;5136530;27;20051;-66
2022/12/09 10:23:00;;;;;;;21.60;11.75;;;1.90;99.90;;;;;;5136706;27;20047;-66
2022/12/09 10:25:32;;;;;;;26.27;12.90;;;1.60;99.90;;;;;;5136283;27;20034;-66
2022/12/09 10:27:57;;;;;;;25.58;13.70;;;1.70;99.90;;;;;;5119078;27;20107;-65
2022/12/09 10:30:23;;;;;;;40.55;20.33;;;1.60;99.90;;;;;;5136296;27;20494;-66
2022/12/09 10:32:49;;;;;;;25.23;13.57;;;1.80;99.90;;;;;;5136841;27;20096;-66
2022/12/09 10:35:16;;;;;;;26.23;13.98;;;1.80;99.90;;;;;;5136448;27;20436;-66
2022/12/09 10:37:42;;;;;;;24.20;13.32;;;1.70;99.90;;;;;;5117648;27;20050;-66
2022/12/09 10:40:16;;;;;;;29.85;15.48;;;1.80;99.90;;;;;;5136127;27;20058;-66
2022/12/09 10:45:45;;;;;;;24.05;12.55;;;2.30;99.90;;;;;;5135910;27;20532;-65
2022/12/09 10:48:47;;;;;;;26.00;13.82;;;1.80;99.90;;;;;;5136562;27;20171;-65
2022/12/09 10:51:21;;;;;;;27.95;14.27;;;1.70;99.90;;;;;;5106189;27;20498;-66
2022/12/09 10:53:53;;;;;;;26.80;14.05;;;1.60;99.90;;;;;;5135908;27;20083;-66
2022/12/09 10:56:29;;;;;;;28.40;14.80;;;1.90;99.90;;;;;;5136510;27;20169;-66
2022/12/09 10:59:18;;;;;;;27.55;14.50;;;1.70;99.90;;;;;;5117528;27;20050;-66
2022/12/09 11:02:02;;;;;;;30.20;15.02;;;1.60;99.90;;;;;;5135745;27;20051;-66
2022/12/09 11:04:32;;;;;;;33.05;15.00;;;1.80;99.90;;;;;;5136393;27;20414;-66
2022/12/09 11:07:14;;;;;;;34.85;17.83;;;1.80;99.90;;;;;;5136449;27;20126;-66
2022/12/09 11:09:46;;;;;;;28.30;14.40;;;1.70;99.90;;;;;;5135591;27;20129;-66
2022/12/09 11:12:26;;;;;;;31.48;14.43;;;1.70;99.90;;;;;;5136328;27;20125;-66
2022/12/09 11:15:04;;;;;;;37.90;15.35;;;1.80;99.90;;;;;;5117793;27;20475;-66
2022/12/09 11:17:36;;;;;;;31.30;15.10;;;1.80;99.90;;;;;;5117367;27;20597;-66
2022/12/09 11:20:04;;;;;;;31.17;15.32;;;2.50;99.90;;;;;;5135628;27;20046;-66
2022/12/09 11:22:40;;;;;;;29.92;14.80;;;1.60;99.90;;;;;;5135622;27;20387;-66
2022/12/09 11:25:12;;;;;;;29.67;13.75;;;2.00;99.90;;;;;;5117764;27;20055;-66
2022/12/09 11:27:53;;;;;;;30.77;14.38;;;1.70;99.90;;;;;;5136083;27;20051;-66
2022/12/09 11:30:26;;;;;;;28.42;14.60;;;1.60;99.90;;;;;;5135195;27;20068;-66
2022/12/09 11:33:04;;;;;;;30.58;13.38;;;1.50;99.90;;;;;;5135218;27;20050;-67
2022/12/09 11:35:36;;;;;;;29.40;12.90;;;2.10;99.90;;;;;;5135996;27;20118;-66
2022/12/09 11:38:20;;;;;;;26.92;14.07;;;1.60;99.90;;;;;;5135149;27;20051;-66
2022/12/09 11:41:04;;;;;;;27.90;13.80;;;1.50;99.90;;;;;;5134829;27;20482;-68
2022/12/09 11:43:38;;;;;;;30.05;14.35;;;1.60;99.90;;;;;;5135782;27;20090;-67
2022/12/09 11:46:32;;;;;;;31.15;15.63;;;1.50;99.90;;;;;;5134750;27;20043;-67
2022/12/09 11:48:59;;;;;;;33.60;14.25;;;1.30;99.90;;;;;;5135505;27;20043;-66
2022/12/09 11:51:38;;;;;;;32.03;14.18;;;1.50;99.90;;;;;;5116680;27;20050;-67
2022/12/09 11:54:13;;;;;;;27.58;13.38;;;1.50;99.90;;;;;;5117025;27;20135;-66
2022/12/09 11:56:40;;;;;;;34.85;15.55;;;2.20;99.90;;;;;;5099803;27;20062;-66
2022/12/09 11:59:13;;;;;;;29.35;14.35;;;1.30;99.90;;;;;;5134511;27;20059;-67
2022/12/09 12:01:51;;;;;;;30.95;14.07;;;1.40;99.90;;;;;;5116517;27;20047;-67
2022/12/09 12:04:29;;;;;;;37.63;13.57;;;1.60;99.90;;;;;;5117045;28;20042;-66
2022/12/09 12:07:06;;;;;;;32.85;15.65;;;1.60;99.90;;;;;;5134654;27;20081;-67
2022/12/09 12:09:54;;;;;;;27.58;14.65;;;1.40;99.90;;;;;;5134943;28;20390;-67
2022/12/09 12:12:29;;;;;;;33.03;14.55;;;1.30;99.90;;;;;;5135252;28;20054;-67
2022/12/09 12:15:01;;;;;;;25.90;12.45;;;2.90;99.90;;;;;;5134621;28;20389;-67
2022/12/09 12:17:42;;;;;;;31.75;14.48;;;1.60;99.90;;;;;;5134696;28;20051;-66
2022/12/09 12:20:11;;;;;;;24.60;13.40;;;1.00;99.90;;;;;;5135132;28;20039;-67
2022/12/09 12:22:40;;;;;;;29.30;14.25;;;1.30;99.90;;;;;;5134815;28;20437;-67
2022/12/09 12:25:08;;;;;;;27.83;14.27;;;1.70;99.90;;;;;;5134484;28;20498;-67
2022/12/09 12:28:02;;;;;;;28.38;13.77;;;1.60;99.90;;;;;;5135090;28;20071;-67
2022/12/09 12:30:40;;;;;;;26.65;13.45;;;1.70;99.90;;;;;;5134473;28;20043;-67
2022/12/09 12:33:24;;;;;;;25.80;13.65;;;1.40;99.90;;;;;;5134471;28;20051;-67
2022/12/09 12:36:04;;;;;;;25.30;12.63;;;1.50;99.90;;;;;;5134479;28;20035;-66
2022/12/09 12:39:06;;;;;;;25.58;12.30;;;1.50;99.90;;;;;;5134432;28;20078;-68
2022/12/09 12:41:56;;;;;;;29.85;13.70;;;1.60;99.90;;;;;;5134997;28;20047;-66
2022/12/09 12:47:45;;;;;;;27.23;13.23;;;1.30;99.90;;;;;;5134296;28;20055;-67
2022/12/09 12:50:32;;;;;;;24.45;13.07;;;1.40;99.90;;;;;;5134258;28;20039;-67
2022/12/09 12:53:40;;;;;;;27.20;12.93;;;1.40;99.90;;;;;;5134322;28;20086;-67
2022/12/09 12:56:45;;;;;;;26.00;13.15;;;1.40;99.90;;;;;;5134268;27;20047;-67
2022/12/09 12:59:18;;;;;;;23.50;11.88;;;1.60;99.90;;;;;;5119971;27;20138;-66
2022/12/09 13:01:53;;;;;;;23.48;11.68;;;1.80;99.90;;;;;;5138130;27;20039;-66
2022/12/09 13:04:28;;;;;;;28.55;14.18;;;2.40;99.90;;;;;;5137474;27;20540;-66
2022/12/09 13:07:10;;;;;;;29.77;13.13;;;1.70;99.90;;;;;;5138454;27;20166;-66
2022/12/09 13:09:48;;;;;;;35.65;16.15;;;1.50;99.90;;;;;;5103098;27;20047;-66